createdAt,value
2019-03-12T08:12:49.648Z,11.97
2019-03-12T08:15:23.372Z,13.90
2019-03-12T09:33:05.373Z,13.33
2019-03-12T09:35:36.821Z,13.80
2019-03-12T09:38:14.924Z,10.15
2019-03-12T09:40:43.800Z,15.23
2019-03-12T09:43:18.071Z,11.70
2019-03-12T09:48:30.221Z,9.70
2019-03-12T09:59:05.096Z,5.70
2019-03-12T10:09:43.870Z,3.75
2019-03-12T10:43:02.849Z,4.50
2019-03-12T10:48:03.045Z,3.77
2019-03-12T10:50:29.871Z,5.10
2019-03-12T11:56:38.644Z,2.37
2019-03-12T11:59:05.262Z,3.70
2019-03-12T12:01:31.641Z,3.80
2019-03-12T12:03:58.544Z,3.63
2019-03-12T12:06:25.514Z,3.00
2019-03-12T12:08:52.265Z,3.10
2019-03-12T12:11:19.051Z,2.53
2019-03-12T12:13:46.581Z,3.40
2019-03-12T12:16:13.404Z,2.70
2019-03-12T12:18:40.043Z,2.97
2019-03-12T12:21:06.640Z,4.73
2019-03-12T12:23:35.052Z,3.47
2019-03-12T12:26:01.932Z,3.03
2019-03-12T12:28:29.900Z,3.03
2019-03-12T12:30:56.846Z,4.20
2019-03-12T12:33:23.635Z,2.83
2019-03-12T12:35:50.560Z,2.83
2019-03-12T12:38:17.940Z,3.33
2019-03-12T12:40:48.378Z,3.10
2019-03-12T12:43:14.812Z,3.60
2019-03-12T12:45:41.958Z,2.70
2019-03-12T12:48:10.317Z,2.40
2019-03-12T12:50:37.452Z,3.20
2019-03-12T12:53:04.301Z,2.20
2019-03-12T12:55:31.496Z,2.60
2019-03-12T12:57:58.804Z,3.50
2019-03-12T13:00:26.440Z,3.30
2019-03-12T13:02:58.793Z,2.77
2019-03-12T13:05:25.758Z,4.20
2019-03-12T13:07:52.732Z,3.10
2019-03-12T13:10:27.303Z,2.80
2019-03-12T13:12:54.163Z,2.70
2019-03-12T13:15:21.275Z,3.77
2019-03-12T13:17:48.175Z,3.07
2019-03-12T13:20:15.029Z,3.47
2019-03-12T13:22:41.528Z,3.30
2019-03-12T13:25:13.258Z,3.83
2019-03-12T13:27:42.483Z,4.50
2019-03-12T13:30:19.776Z,2.63
2019-03-12T13:32:48.292Z,3.13
2019-03-12T13:35:16.641Z,4.47
2019-03-12T13:37:45.921Z,3.90
2019-03-12T13:40:24.140Z,2.50
2019-03-12T13:42:52.311Z,2.83
2019-03-12T13:45:23.794Z,4.10
2019-03-12T13:47:50.737Z,4.47
2019-03-12T13:50:17.580Z,4.43
2019-03-12T13:52:44.470Z,3.50
2019-03-12T13:55:12.980Z,3.33
2019-03-12T13:57:40.309Z,2.90
2019-03-12T14:00:08.901Z,3.47
2019-03-12T14:02:35.733Z,3.00
2019-03-12T14:05:02.875Z,3.10
2019-03-12T14:07:29.583Z,3.07
2019-03-12T14:09:56.495Z,4.77
2019-03-12T14:12:23.636Z,4.70
2019-03-12T14:14:50.148Z,2.77
2019-03-12T14:17:17.409Z,4.43
2019-03-12T14:19:44.013Z,4.27
2019-03-12T14:22:10.857Z,3.20
2019-03-12T14:24:37.446Z,3.27
2019-03-12T14:27:05.761Z,2.87
2019-03-12T14:29:32.675Z,4.83
2019-03-12T14:31:59.513Z,3.17
2019-03-12T14:34:27.213Z,2.70
2019-03-12T14:36:54.189Z,3.60
2019-03-12T14:39:21.332Z,3.90
2019-03-12T14:41:48.621Z,4.30
2019-03-12T14:44:15.231Z,3.00
2019-03-12T14:46:43.030Z,2.97
2019-03-12T14:49:09.927Z,4.10
2019-03-12T14:51:41.438Z,3.70
2019-03-12T14:54:10.474Z,3.50
2019-03-12T14:56:37.272Z,3.20
2019-03-12T14:59:04.094Z,3.43
2019-03-12T15:01:30.866Z,3.13
2019-03-12T15:03:57.413Z,3.00
2019-03-12T15:06:24.333Z,2.60
2019-03-12T15:08:53.117Z,2.90
2019-03-12T15:11:20.589Z,2.83
2019-03-12T15:13:47.404Z,3.40
2019-03-12T15:16:15.045Z,3.37
2019-03-12T15:18:42.881Z,2.80
2019-03-12T15:21:09.860Z,3.27
2019-03-12T15:23:36.264Z,3.13
2019-03-12T15:26:03.983Z,3.00
2019-03-12T15:28:33.986Z,3.27
2019-03-12T15:31:02.262Z,3.10
2019-03-12T15:33:29.292Z,2.37
2019-03-12T15:35:56.140Z,2.03
2019-03-12T15:38:22.721Z,2.50
2019-03-12T15:40:49.101Z,2.33
2019-03-12T15:43:17.927Z,2.57
2019-03-12T15:45:44.746Z,2.17
2019-03-12T15:48:11.828Z,2.03
2019-03-12T15:50:38.979Z,1.83
2019-03-12T15:53:05.612Z,1.57
2019-03-12T15:55:32.716Z,1.33
2019-03-12T15:57:59.678Z,1.83
2019-03-12T16:00:26.544Z,2.43
2019-03-12T16:02:53.189Z,2.03
2019-03-12T16:05:19.965Z,2.03
2019-03-12T16:07:46.677Z,2.10
2019-03-12T16:10:19.161Z,1.90
2019-03-12T16:12:44.698Z,1.97
2019-03-12T16:15:13.328Z,1.90
2019-03-12T16:17:40.276Z,1.90
2019-03-12T16:20:10.824Z,1.83
2019-03-12T16:22:38.248Z,1.83
2019-03-12T16:25:06.352Z,2.00
2019-03-12T16:27:33.333Z,1.77
2019-03-12T16:29:59.728Z,2.20
2019-03-12T16:32:29.288Z,1.80
2019-03-12T16:34:55.810Z,2.10
2019-03-12T16:37:23.189Z,2.30
2019-03-12T16:39:49.766Z,1.87
2019-03-12T16:42:16.475Z,1.80
2019-03-12T16:44:42.829Z,2.03
2019-03-12T16:47:09.718Z,2.23
2019-03-12T16:49:36.497Z,1.97
2019-03-12T16:52:05.554Z,2.63
2019-03-12T16:54:35.268Z,1.80
2019-03-12T16:57:01.904Z,2.00
2019-03-12T16:59:31.100Z,2.33
2019-03-12T17:01:58.149Z,1.97
2019-03-12T17:04:24.872Z,2.40
2019-03-12T17:06:52.570Z,2.80
2019-03-12T17:09:19.199Z,2.20
2019-03-12T17:11:45.690Z,1.90
2019-03-12T17:14:12.198Z,2.00
2019-03-12T17:16:38.675Z,2.23
2019-03-12T17:19:05.783Z,2.13
2019-03-12T17:21:32.867Z,2.43
2019-03-12T17:24:00.486Z,2.10
2019-03-12T17:26:27.303Z,3.00
2019-03-12T17:28:54.121Z,2.50
2019-03-12T17:31:21.247Z,2.17
2019-03-12T17:33:47.767Z,2.20
2019-03-12T17:36:14.370Z,3.73
2019-03-12T17:38:46.635Z,2.30
2019-03-12T17:41:10.268Z,3.00
2019-03-12T17:43:39.200Z,2.87
2019-03-12T17:46:06.570Z,2.40
2019-03-12T17:48:32.932Z,2.30
2019-03-12T17:50:59.699Z,2.50
2019-03-12T17:53:26.209Z,2.27
2019-03-12T17:55:52.825Z,2.60
2019-03-12T17:58:19.624Z,2.40
2019-03-12T18:00:47.979Z,2.67
2019-03-12T18:03:14.591Z,2.80
2019-03-12T18:05:41.590Z,2.00
2019-03-12T18:08:14.492Z,2.40
2019-03-12T18:10:41.387Z,2.70
2019-03-12T18:13:08.417Z,3.10
2019-03-12T18:15:38.414Z,2.13
2019-03-12T18:18:25.306Z,2.80
2019-03-12T18:20:51.932Z,2.60
2019-03-12T18:23:18.847Z,3.00
2019-03-12T18:25:47.927Z,2.67
2019-03-12T18:28:14.534Z,2.20
2019-03-12T18:30:41.037Z,2.10
2019-03-12T18:33:10.543Z,2.70
2019-03-12T18:35:36.998Z,3.77
2019-03-12T18:38:03.654Z,2.50
2019-03-12T18:40:30.684Z,2.20
2019-03-12T18:42:59.690Z,2.33
2019-03-12T18:45:27.446Z,2.27
2019-03-12T18:47:54.621Z,1.90
2019-03-12T18:50:21.318Z,2.23
2019-03-12T18:52:47.706Z,2.83
2019-03-12T18:55:31.279Z,2.40
2019-03-12T18:58:00.062Z,2.03
2019-03-12T19:00:26.949Z,2.17
2019-03-12T19:02:53.704Z,2.00
2019-03-12T19:05:20.365Z,2.70
2019-03-12T19:08:02.786Z,1.87
2019-03-12T19:10:33.722Z,2.83
2019-03-12T19:13:01.547Z,2.90
2019-03-12T19:15:28.699Z,2.67
2019-03-12T19:17:55.332Z,2.53
2019-03-12T19:20:23.148Z,2.33
2019-03-12T19:22:51.746Z,2.30
2019-03-12T19:25:38.443Z,2.23
2019-03-12T19:28:06.037Z,2.03
2019-03-12T19:30:34.029Z,4.33
2019-03-12T19:33:14.657Z,2.40
2019-03-12T19:35:43.914Z,2.93
2019-03-12T19:38:20.622Z,2.83
2019-03-12T19:40:50.392Z,2.80
2019-03-12T19:43:35.062Z,2.50
2019-03-12T19:46:02.228Z,2.63
2019-03-12T19:48:29.730Z,2.27
2019-03-12T19:50:58.491Z,2.20
2019-03-12T19:53:26.313Z,2.33
2019-03-12T19:55:56.801Z,2.83
2019-03-12T19:58:23.420Z,2.80
2019-03-12T20:00:52.698Z,2.80
2019-03-12T20:03:22.578Z,3.07
2019-03-12T20:08:37.874Z,2.60
2019-03-12T20:11:30.423Z,2.50
2019-03-12T20:14:43.585Z,2.70
2019-03-12T20:17:18.300Z,3.13
2019-03-12T20:20:05.176Z,2.67
2019-03-12T20:22:50.265Z,2.00
2019-03-12T20:25:53.692Z,2.10
2019-03-12T20:28:58.576Z,1.97
2019-03-12T20:31:59.852Z,2.20
2019-03-12T20:34:49.138Z,2.30
2019-03-12T20:37:29.162Z,2.23
2019-03-12T20:40:31.368Z,2.00
2019-03-12T20:43:38.473Z,1.63
2019-03-12T20:46:14.632Z,2.43
2019-03-12T20:49:19.572Z,2.17
2019-03-12T20:52:12.181Z,2.30
2019-03-12T20:54:58.780Z,2.10
2019-03-12T20:57:45.573Z,2.13
2019-03-12T21:00:32.884Z,2.90
2019-03-12T21:03:33.747Z,1.30
2019-03-12T21:06:16.430Z,1.93
2019-03-12T21:09:23.230Z,2.30
2019-03-12T21:12:26.929Z,2.13
2019-03-12T21:15:30.464Z,4.73
2019-03-12T21:18:31.128Z,2.80
2019-03-12T21:21:26.780Z,2.20
2019-03-12T21:23:55.399Z,1.80
2019-03-12T21:27:07.089Z,2.30
2019-03-12T21:29:45.498Z,1.27
2019-03-12T21:32:15.914Z,1.43
2019-03-12T21:34:42.488Z,2.10
2019-03-12T21:37:10.543Z,2.50
2019-03-12T21:39:38.042Z,2.20
2019-03-12T21:42:07.738Z,1.87
2019-03-12T21:44:38.152Z,1.90
2019-03-12T21:47:07.478Z,2.07
2019-03-12T21:52:32.297Z,2.40
2019-03-12T21:54:58.823Z,2.00
2019-03-12T21:57:25.490Z,2.10
2019-03-12T21:59:53.170Z,1.20
2019-03-12T22:02:24.392Z,2.40
2019-03-12T22:04:54.889Z,2.23
2019-03-12T22:07:22.685Z,1.60
2019-03-12T22:09:51.764Z,1.97
2019-03-12T22:12:19.504Z,2.00
2019-03-12T22:14:47.989Z,1.47
2019-03-12T22:17:14.399Z,1.30
2019-03-12T22:19:40.809Z,2.23
2019-03-12T22:22:11.868Z,1.37
2019-03-12T22:24:41.535Z,1.40
2019-03-12T22:27:08.259Z,1.53
2019-03-12T22:29:35.623Z,2.10
2019-03-12T22:32:03.674Z,1.50
2019-03-12T22:34:33.312Z,2.13
2019-03-12T22:37:01.656Z,2.17
2019-03-12T22:39:28.162Z,1.77
2019-03-12T22:41:54.537Z,2.17
2019-03-12T22:44:20.957Z,1.83
2019-03-12T22:46:49.261Z,1.77
2019-03-12T22:49:15.668Z,1.93
2019-03-12T22:51:42.486Z,1.30
2019-03-12T22:54:11.273Z,1.47
2019-03-12T22:56:37.806Z,1.37
2019-03-12T22:59:04.200Z,1.83
2019-03-12T23:01:31.028Z,1.60
2019-03-12T23:04:00.172Z,1.70
2019-03-12T23:06:28.716Z,1.40
2019-03-12T23:08:55.653Z,2.23
2019-03-12T23:11:22.222Z,1.13
2019-03-12T23:13:50.684Z,1.57
2019-03-12T23:16:19.214Z,1.67
2019-03-12T23:18:45.811Z,1.30
2019-03-12T23:21:12.721Z,1.60
2019-03-12T23:23:39.076Z,1.53
2019-03-12T23:26:05.573Z,1.97
2019-03-12T23:28:32.134Z,1.50
2019-03-12T23:30:58.645Z,2.13
2019-03-12T23:33:26.300Z,1.60
2019-03-12T23:35:52.783Z,2.53
2019-03-12T23:38:20.428Z,1.80
2019-03-12T23:40:47.273Z,1.57
2019-03-12T23:43:13.769Z,2.20
2019-03-12T23:45:40.504Z,1.23
2019-03-12T23:48:07.632Z,1.93
2019-03-12T23:50:34.575Z,2.20
2019-03-12T23:53:01.160Z,1.90
2019-03-12T23:55:27.756Z,2.73
2019-03-12T23:57:54.182Z,1.93
